x

Venice, Fl (venf1) Weather Station

4:00am - Tue 30th Aug 2016 All times are EDT. -4 hours from GMT.

  • Wind
    8mph, 11mph gusts
  • Sea Temp 84°f
  • Air Temp 76°f
  • Sea Pressure 1011.6mb
  • Venice, Fl
  • Venice, Fl

More Historic Weather Station data

Upgrade to MSW Pro to gain access to the past 30 days of data for over 8000 Wavebouys and Weather Stations around the globe.

Join Pro

Comparision Forecast

View Surf forecast
   
Tue 08/30 4:00am 8 11 mph 1011.6mb 84f 76f
3:00am 8 10 mph 1011.8mb 84f 76f
2:00am 8 10 mph 1012.2mb 84f 76f
1:00am 6 8 mph 1012.1mb 84f 76f
12:00am 6 8 mph 1012.6mb 84f 77f
Mon 08/29 11:00pm 7 9 mph 1012.4mb 85f 77f
10:00pm 8 10 mph 1012.2mb 85f 77f
9:00pm 8 13 mph 1012.5mb 85f 77f
8:00pm 7 9 mph 1011.6mb 85f 77f
7:00pm 5 6 mph 1011.5mb 85f 77f
6:00pm 6 8 mph 1011.6mb 85f 78f
5:00pm 6 7 mph 1011.5mb 85f 77f
4:00pm 5 6 mph 1010.9mb 85f 79f
3:00pm 9 10 mph 1011.1mb 85f 88f
2:00pm 5 9 mph 1012mb 84f 89f
1:00pm 13 15 mph 1012.6mb 84f 88f
12:00pm 10 13 mph 1012.9mb 84f 87f
11:00am 13 15 mph 1013.2mb 84f 85f
10:00am 13 15 mph 1013mb 84f 84f
9:00am 9 13 mph 1013mb 84f 81f
8:00am 8 10 mph 1012.7mb 84f 79f
7:00am 6 9 mph 1012.1mb 84f 78f
6:00am 9 10 mph 1012mb 84f 78f
5:00am 8 11 mph 1011.8mb 84f 78f
4:00am 6 9 mph 1012.1mb 84f 78f
3:00am 8 10 mph 1012.2mb 84f 79f
2:00am 7 9 mph 1012.6mb 84f 79f
1:00am 8 10 mph 1012.6mb 84f 79f
12:00am 10 13 mph 1013.2mb 84f 80f
Sun 08/28 11:00pm 9 11 mph 1013.2mb 84f 81f
10:00pm 7 9 mph 1013.1mb 84f 82f
9:00pm 7 9 mph 1012.3mb 84f 83f
8:00pm 7 9 mph 1012mb 84f 83f
7:00pm 8 9 mph 1011.2mb 84f 83f
6:00pm 7 11 mph 1011mb 84f 82f
5:00pm 10 15 mph 1010.9mb 84f 91f
4:00pm 17 21 mph 1010.9mb 84f 93f
3:00pm 16 22 mph 1011.5mb 84f 93f
2:00pm 14 17 mph 1012.4mb 84f 91f
1:00pm 16 23 mph 1012.9mb 84f 90f
12:00pm 15 18 mph 1013.7mb 83f 88f
11:00am 10 15 mph 1014mb 83f 86f
10:00am 9 14 mph 1014.2mb 83f 85f
9:00am 10 16 mph 1014mb 83f 82f
8:00am 9 13 mph 1013.7mb 83f 79f
7:00am 6 8 mph 1013.4mb 83f 78f
6:00am 9 11 mph 1013.1mb 83f 78f
5:00am 7 8 mph 1012.8mb 83f 78f
4:00am 8 10 mph 1012.7mb 83f 78f
3:00am 7 8 mph 1012.7mb 83f 78f
2:00am 8 10 mph 1013.1mb 83f 79f
1:00am 7 9 mph 1013.4mb 83f 78f
12:00am 9 11 mph 1013.4mb 83f 79f
Sat 08/27 11:00pm 7 8 mph 1013.2mb 83f 79f
10:00pm 7 9 mph 1013.6mb 83f 79f
9:00pm 8 10 mph 1013.3mb 84f 79f
8:00pm 10 11 mph 1013mb 84f 79f
7:00pm 8 10 mph 1013.2mb 84f 79f
6:00pm 10 13 mph 1012.5mb 84f 80f
5:00pm 10 16 mph 1012.6mb 84f 81f
4:00pm 16 20 mph 1012mb 84f 84f
3:00pm 8 11 mph 1011.6mb 84f 91f
2:00pm 8 10 mph 1012.9mb 84f 90f
1:00pm 11 18 mph 1013.5mb 84f 88f
12:00pm 13 17 mph 1014mb 84f 87f
11:00am 8 11 mph 1013.8mb 84f 86f
10:00am 9 13 mph 1014.1mb 84f 83f
9:00am 11 14 mph 1014.2mb 84f 81f
8:00am 7
mph
1013.9mb 84f 78f
7:00am 7 9 mph 1013.4mb 84f 77f
6:00am 5 6 mph 1013mb 84f 76f
5:00am 7 9 mph 1012.5mb 84f 76f
4:00am 7 10 mph 1012mb 85f 76f
3:00am 7 8 mph 1012.3mb 85f 75f
2:00am 8 10 mph 1013.6mb 85f 74f
1:00am 11 15 mph 1015mb 85f 76f
12:00am 6 7 mph 1015.5mb 85f 77f
Fri 08/26 11:00pm 3 5 mph 1015.4mb 85f 77f
10:00pm 3 6 mph 1014.6mb 85f 77f
9:00pm 7 9 mph 1014.8mb 85f 79f
8:00pm 7 9 mph 1013.8mb 85f 78f
7:00pm 6 8 mph 1013.3mb 85f 79f
6:00pm 8 10 mph 1012.3mb 85f 81f
5:00pm 20 22 mph 1012.5mb 85f 79f
4:00pm 10 11 mph 1012mb 85f 88f
3:00pm 5 6 mph 1012.6mb 85f 89f
2:00pm 9 11 mph 1013.4mb 85f 91f
1:00pm 10 14 mph 1013.8mb 85f 90f
12:00pm 14 16 mph 1014.2mb 84f 88f
11:00am 9 15 mph 1014.6mb 84f 87f
10:00am 11 14 mph 1014.5mb 84f 82f